Time;durP1;ratioP1;P1;durP2;ratioP2;P2;SDS_P1;SDS_P2;PMS_P1;PMS_P2;Temp;Humidity;BMP_temperature;BMP_pressure;BME280_temperature;BME280_humidity;BME280_pressure;Samples;Min_cycle;Max_cycle;Signal;HPM_P1;HPM_P2
2022/05/05 00:01:32;;;;;;;;;;;;;;;;;;5040663;28;19959;-81
2022/05/05 00:03:57;;;;;;;;;;;;;;;;;;5056616;28;19960;-80
2022/05/05 00:06:22;;;;;;;;;;;;;;;;;;5039342;28;19959;-81
2022/05/05 00:08:47;;;;;;;;;;;;;;;;;;5056305;28;20382;-80
2022/05/05 00:16:40;;;;;;;;;;;;;;;;;;5056289;28;19931;-81
2022/05/05 00:19:05;;;;;;;;;;;;;;;;;;5056487;28;19913;-81
2022/05/05 00:21:31;;;;;;;;;;;;;;;;;;5056030;28;19917;-79
2022/05/05 00:23:56;;;;;;;;;;;;;;;;;;5037574;28;20445;-80
2022/05/05 00:26:21;;;;;;;;;;;;;;;;;;5055712;28;19920;-82
2022/05/05 00:28:49;;;;;;;;;;;;;;;;;;5038455;28;19917;-80
2022/05/05 00:31:14;;;;;;;;;;;;;;;;;;5053347;28;20262;-80
2022/05/05 00:33:39;;;;;;;;;;;;;;;;;;5055990;28;19920;-80
2022/05/05 00:36:07;;;;;;;;;;;;;;;;;;5054634;28;19928;-80
2022/05/05 00:38:32;;;;;;;;;;;;;;;;;;5054267;28;20007;-80
2022/05/05 00:40:58;;;;;;;;;;;;;;;;;;5033466;28;20012;-80
2022/05/05 00:43:23;;;;;;;;;;;;;;;;;;5053456;28;19967;-78
2022/05/05 00:45:48;;;;;;;;;;;;;;;;;;5038328;28;19932;-81
2022/05/05 00:48:14;;;;;;;;;;;;;;;;;;5054575;28;20276;-80
2022/05/05 00:50:40;;;;;;;;;;;;;;;;;;5049611;28;20324;-80
2022/05/05 00:53:05;;;;;;;;;;;;;;;;;;5052067;28;19916;-78
2022/05/05 00:55:34;;;;;;;;;;;;;;;;;;5053840;28;20356;-78
2022/05/05 00:58:00;;;;;;;;;;;;;;;;;;5053434;28;20101;-79
2022/05/05 01:00:26;;;;;;;;;;;;;;;;;;5037044;28;20015;-78
2022/05/05 01:02:51;;;;;;;;;;;;;;;;;;5053230;28;20015;-80
2022/05/05 01:05:16;;;;;;;;;;;;;;;;;;5036924;28;20055;-80
2022/05/05 01:07:41;;;;;;;;;;;;;;;;;;5051066;28;19927;-81
2022/05/05 01:10:09;;;;;;;;;;;;;;;;;;5054684;28;19917;-81
2022/05/05 01:12:34;;;;;;;;;;;;;;;;;;5054823;28;19917;-80
2022/05/05 01:15:02;;;;;;;;;;;;;;;;;;5054189;28;20269;-81
2022/05/05 01:17:32;;;;;;;;;;;;;;;;;;5037536;28;19917;-80
2022/05/05 01:20:07;;;;;;;;;;;;;;;;;;5049480;28;19995;-81
2022/05/05 01:22:33;;;;;;;;;;;;;;;;;;5037436;28;19952;-79
2022/05/05 01:30:26;;;;;;;;;;;;;;;;;;5054484;28;19928;-79
2022/05/05 01:32:51;;;;;;;;;;;;;;;;;;5035484;28;19916;-79
2022/05/05 01:35:16;;;;;;;;;;;;;;;;;;5035259;28;20493;-80
2022/05/05 01:37:45;;;;;;;;;;;;;;;;;;5054429;28;19916;-79
2022/05/05 01:40:11;;;;;;;;;;;;;;;;;;5053789;28;20022;-80
2022/05/05 01:42:36;;;;;;;;;;;;;;;;;;5053333;28;19967;-80
2022/05/05 01:45:03;;;;;;;;;;;;;;;;;;5054071;28;19913;-81
2022/05/05 01:47:29;;;;;;;;;;;;;;;;;;5054040;28;19916;-80
2022/05/05 01:49:56;;;;;;;;;;;;;;;;;;5053891;28;19917;-79
2022/05/05 01:52:22;;;;;;;;;;;;;;;;;;5048765;28;19929;-80
2022/05/05 01:54:47;;;;;;;;;;;;;;;;;;5053890;28;19913;-80
2022/05/05 01:57:12;;;;;;;;;;;;;;;;;;5051869;28;19928;-80
2022/05/05 01:59:40;;;;;;;;;;;;;;;;;;5037068;28;20346;-80
2022/05/05 02:02:07;;;;;;;;;;;;;;;;;;5050295;28;20345;-80
2022/05/05 02:04:33;;;;;;;;;;;;;;;;;;5049450;28;19948;-78
2022/05/05 02:07:00;;;;;;;;;;;;;;;;;;5051782;28;20245;-80
2022/05/05 02:09:25;;;;;;;;;;;;;;;;;;5053689;28;19916;-80
2022/05/05 02:11:57;;;;;;;;;;;;;;;;;;5053518;28;19963;-79
2022/05/05 02:14:24;;;;;;;;;;;;;;;;;;5053536;28;19917;-79
2022/05/05 02:16:58;;;;;;;;;;;;;;;;;;5052088;28;19913;-78
2022/05/05 02:19:23;;;;;;;;;;;;;;;;;;5035769;28;19955;-80
2022/05/05 02:21:51;;;;;;;;;;;;;;;;;;5050278;28;20330;-81
2022/05/05 02:24:16;;;;;;;;;;;;;;;;;;5054340;28;20350;-81
2022/05/05 02:26:43;;;;;;;;;;;;;;;;;;5053521;28;19912;-80
2022/05/05 02:29:09;;;;;;;;;;;;;;;;;;5054490;28;20017;-80
2022/05/05 02:31:34;;;;;;;;;;;;;;;;;;5054186;28;19960;-80
2022/05/05 02:33:59;;;;;;;;;;;;;;;;;;5051190;28;20003;-79
2022/05/05 02:39:08;;;;;;;;;;;;;;;;;;5050285;28;20017;-81
2022/05/05 02:41:33;;;;;;;;;;;;;;;;;;5051974;28;19960;-81
2022/05/05 02:43:59;;;;;;;;;;;;;;;;;;5052082;28;19967;-81
2022/05/05 02:46:24;;;;;;;;;;;;;;;;;;5049571;28;19917;-80
2022/05/05 02:48:51;;;;;;;;;;;;;;;;;;5046370;28;19931;-81
2022/05/05 02:51:17;;;;;;;;;;;;;;;;;;5053591;28;20306;-81
2022/05/05 02:56:26;;;;;;;;;;;;;;;;;;5053721;28;19928;-78
2022/05/05 02:58:52;;;;;;;;;;;;;;;;;;5050091;28;19917;-80
2022/05/05 03:01:17;;;;;;;;;;;;;;;;;;5056802;28;19917;-80
2022/05/05 03:03:42;;;;;;;;;;;;;;;;;;5056170;28;19936;-81
2022/05/05 03:06:10;;;;;;;;;;;;;;;;;;5056763;28;20411;-81
2022/05/05 03:08:35;;;;;;;;;;;;;;;;;;5056216;28;19974;-81
2022/05/05 03:11:00;;;;;;;;;;;;;;;;;;5056840;28;19920;-81
2022/05/05 03:13:25;;;;;;;;;;;;;;;;;;5057338;28;19978;-80
2022/05/05 03:15:50;;;;;;;;;;;;;;;;;;5057370;28;19925;-80
2022/05/05 03:18:16;;;;;;;;;;;;;;;;;;5038968;28;19917;-79
2022/05/05 03:20:41;;;;;;;;;;;;;;;;;;5038599;28;19985;-81
2022/05/05 03:23:08;;;;;;;;;;;;;;;;;;5057053;28;20257;-80
2022/05/05 03:25:33;;;;;;;;;;;;;;;;;;5057184;28;20483;-81
2022/05/05 03:27:59;;;;;;;;;;;;;;;;;;5035235;28;19918;-81
2022/05/05 03:30:24;;;;;;;;;;;;;;;;;;5045294;28;20028;-81
2022/05/05 03:32:49;;;;;;;;;;;;;;;;;;5056387;28;19974;-81
2022/05/05 03:35:14;;;;;;;;;;;;;;;;;;5057136;28;19999;-80
2022/05/05 03:37:39;;;;;;;;;;;;;;;;;;5054637;28;19974;-80
2022/05/05 03:40:05;;;;;;;;;;;;;;;;;;5056125;28;20026;-81
2022/05/05 03:42:30;;;;;;;;;;;;;;;;;;5039442;28;20338;-79
2022/05/05 03:44:55;;;;;;;;;;;;;;;;;;5057125;28;19916;-79
2022/05/05 03:47:20;;;;;;;;;;;;;;;;;;5055740;28;20238;-80
2022/05/05 03:49:46;;;;;;;;;;;;;;;;;;5055288;28;19925;-79
2022/05/05 03:52:12;;;;;;;;;;;;;;;;;;5053455;28;19960;-80
2022/05/05 03:54:37;;;;;;;;;;;;;;;;;;5056994;28;20413;-79
2022/05/05 03:57:02;;;;;;;;;;;;;;;;;;5038604;28;20048;-80
2022/05/05 03:59:28;;;;;;;;;;;;;;;;;;5040065;28;20333;-78
2022/05/05 04:01:53;;;;;;;;;;;;;;;;;;5053862;28;19916;-80
2022/05/05 04:04:19;;;;;;;;;;;;;;;;;;5055196;28;19924;-80
2022/05/05 04:06:45;;;;;;;;;;;;;;;;;;5054936;28;20017;-80
2022/05/05 04:09:10;;;;;;;;;;;;;;;;;;5056142;28;20405;-80
2022/05/05 04:11:36;;;;;;;;;;;;;;;;;;5055257;28;19927;-79
2022/05/05 04:14:03;;;;;;;;;;;;;;;;;;5038878;28;20362;-78
2022/05/05 04:16:28;;;;;;;;;;;;;;;;;;5054661;28;19920;-81
2022/05/05 04:18:53;;;;;;;;;;;;;;;;;;5058694;28;19917;-80
2022/05/05 04:21:18;;;;;;;;;;;;;;;;;;5057843;28;19916;-80
2022/05/05 04:23:44;;;;;;;;;;;;;;;;;;5056129;28;19924;-80
2022/05/05 04:26:10;;;;;;;;;;;;;;;;;;5038103;28;19917;-79
2022/05/05 04:28:37;;;;;;;;;;;;;;;;;;5038469;28;19917;-80
2022/05/05 04:31:03;;;;;;;;;;;;;;;;;;5055612;28;19947;-79
2022/05/05 04:33:28;;;;;;;;;;;;;;;;;;5055858;28;19913;-79
2022/05/05 04:35:53;;;;;;;;;;;;;;;;;;5056018;28;19917;-80
2022/05/05 04:38:18;;;;;;;;;;;;;;;;;;5038993;28;20246;-79
2022/05/05 04:40:44;;;;;;;;;;;;;;;;;;5055527;28;20389;-79
2022/05/05 04:43:09;;;;;;;;;;;;;;;;;;5053527;28;19932;-79
2022/05/05 04:45:35;;;;;;;;;;;;;;;;;;5051447;28;19916;-79
2022/05/05 04:48:00;;;;;;;;;;;;;;;;;;5053099;28;19978;-78
2022/05/05 04:50:25;;;;;;;;;;;;;;;;;;5037800;28;20353;-80
2022/05/05 04:52:51;;;;;;;;;;;;;;;;;;5051281;28;19924;-79
2022/05/05 04:55:16;;;;;;;;;;;;;;;;;;5054579;28;20007;-78
2022/05/05 04:57:43;;;;;;;;;;;;;;;;;;5055945;28;19912;-79
2022/05/05 05:00:09;;;;;;;;;;;;;;;;;;5036838;28;19975;-80
2022/05/05 05:02:34;;;;;;;;;;;;;;;;;;5054499;28;19916;-79
2022/05/05 05:05:02;;;;;;;;;;;;;;;;;;5055232;28;19925;-80
2022/05/05 05:07:27;;;;;;;;;;;;;;;;;;5055303;28;19943;-79
2022/05/05 05:09:52;;;;;;;;;;;;;;;;;;5055662;28;19913;-80
2022/05/05 05:12:18;;;;;;;;;;;;;;;;;;5055480;28;19975;-79
2022/05/05 05:14:43;;;;;;;;;;;;;;;;;;5053952;28;19928;-79
2022/05/05 05:17:08;;;;;;;;;;;;;;;;;;5053080;28;19916;-79
2022/05/05 05:19:35;;;;;;;;;;;;;;;;;;5055066;28;19913;-80
2022/05/05 05:22:05;;;;;;;;;;;;;;;;;;5055366;28;19916;-79
2022/05/05 05:24:33;;;;;;;;;;;;;;;;;;5053457;28;19917;-80
2022/05/05 05:26:58;;;;;;;;;;;;;;;;;;5034797;28;19999;-79
2022/05/05 05:29:24;;;;;;;;;;;;;;;;;;5037131;28;20003;-80
2022/05/05 05:31:49;;;;;;;;;;;;;;;;;;5054013;28;19975;-79
2022/05/05 05:34:14;;;;;;;;;;;;;;;;;;5054176;28;19917;-80
2022/05/05 05:36:39;;;;;;;;;;;;;;;;;;5032930;28;19928;-80
2022/05/05 05:39:07;;;;;;;;;;;;;;;;;;5050838;28;19928;-80
2022/05/05 05:41:32;;;;;;;;;;;;;;;;;;5054929;28;20327;-80
2022/05/05 05:43:57;;;;;;;;;;;;;;;;;;5037431;28;20338;-78
2022/05/05 05:46:23;;;;;;;;;;;;;;;;;;5054273;28;20468;-80
2022/05/05 05:48:48;;;;;;;;;;;;;;;;;;5053550;28;19917;-80
2022/05/05 05:51:13;;;;;;;;;;;;;;;;;;5054385;28;20364;-80
2022/05/05 05:53:43;;;;;;;;;;;;;;;;;;5054053;28;19917;-79
2022/05/05 05:56:09;;;;;;;;;;;;;;;;;;5053711;28;19939;-79
2022/05/05 05:58:40;;;;;;;;;;;;;;;;;;5054779;28;20304;-79
2022/05/05 06:01:06;;;;;;;;;;;;;;;;;;5054315;28;19917;-81
2022/05/05 06:06:15;;;;;;;;;;;;;;;;;;5053837;28;19927;-80
2022/05/05 06:08:40;;;;;;;;;;;;;;;;;;5053880;28;19916;-80
2022/05/05 06:11:06;;;;;;;;;;;;;;;;;;5052465;28;19983;-80
2022/05/05 06:13:33;;;;;;;;;;;;;;;;;;5037224;28;19917;-80
2022/05/05 06:15:59;;;;;;;;;;;;;;;;;;5036497;28;20008;-79
2022/05/05 06:18:24;;;;;;;;;;;;;;;;;;5053885;28;19999;-80
2022/05/05 06:20:49;;;;;;;;;;;;;;;;;;5053974;28;20078;-80
2022/05/05 06:23:14;;;;;;;;;;;;;;;;;;5053944;28;19917;-80
2022/05/05 06:25:44;;;;;;;;;;;;;;;;;;5033720;28;19928;-79
2022/05/05 06:28:10;;;;;;;;;;;;;;;;;;5052857;28;19917;-80
2022/05/05 06:30:35;;;;;;;;;;;;;;;;;;5051750;28;19921;-80
2022/05/05 06:33:02;;;;;;;;;;;;;;;;;;5052460;28;19920;-81
2022/05/05 06:35:28;;;;;;;;;;;;;;;;;;5056234;28;19917;-80
2022/05/05 06:37:53;;;;;;;;;;;;;;;;;;5042661;28;19917;-80
2022/05/05 06:40:18;;;;;;;;;;;;;;;;;;5042906;28;19928;-80
2022/05/05 06:42:44;;;;;;;;;;;;;;;;;;5055210;28;19917;-80
2022/05/05 06:45:09;;;;;;;;;;;;;;;;;;5060772;28;20007;-79
2022/05/05 06:47:34;;;;;;;;;;;;;;;;;;5056160;28;19927;-79
2022/05/05 06:49:59;;;;;;;;;;;;;;;;;;5059918;28;19921;-79
2022/05/05 06:52:26;;;;;;;;;;;;;;;;;;5042070;28;20281;-81
2022/05/05 06:54:51;;;;;;;;;;;;;;;;;;5060253;28;19970;-79
2022/05/05 06:57:17;;;;;;;;;;;;;;;;;;5057352;28;19920;-78
2022/05/05 06:59:42;;;;;;;;;;;;;;;;;;5059436;28;19963;-80
2022/05/05 07:02:07;;;;;;;;;;;;;;;;;;5060805;28;19913;-79
2022/05/05 07:07:31;;;;;;;;;;;;;;;;;;5056890;28;19935;-81
2022/05/05 07:12:46;;;;;;;;;;;;;;;;;;5059883;28;20304;-81
2022/05/05 07:15:17;;;;;;;;;;;;;;;;;;5060294;28;19920;-79
2022/05/05 07:17:52;;;;;;;;;;;;;;;;;;5041960;28;19916;-81
2022/05/05 07:20:17;;;;;;;;;;;;;;;;;;5060242;28;19917;-80
2022/05/05 07:22:42;;;;;;;;;;;;;;;;;;5060592;28;19913;-79
2022/05/05 07:25:08;;;;;;;;;;;;;;;;;;5060672;28;20258;-79
2022/05/05 07:27:33;;;;;;;;;;;;;;;;;;5060588;28;20355;-80
2022/05/05 07:29:58;;;;;;;;;;;;;;;;;;5042736;28;19913;-80
2022/05/05 07:32:31;;;;;;;;;;;;;;;;;;5062298;28;19917;-81
2022/05/05 07:34:56;;;;;;;;;;;;;;;;;;5060427;28;20338;-82
2022/05/05 07:37:21;;;;;;;;;;;;;;;;;;5060363;28;19947;-81
2022/05/05 07:39:52;;;;;;;;;;;;;;;;;;5056545;28;19917;-81
2022/05/05 07:42:20;;;;;;;;;;;;;;;;;;5060421;28;19951;-81
2022/05/05 07:44:45;;;;;;;;;;;;;;;;;;5060814;28;19924;-81
2022/05/05 07:47:10;;;;;;;;;;;;;;;;;;5058611;28;19917;-81
2022/05/05 07:49:38;;;;;;;;;;;;;;;;;;5055844;28;19917;-82
2022/05/05 07:52:03;;;;;;;;;;;;;;;;;;5056712;28;19917;-80
2022/05/05 07:54:34;;;;;;;;;;;;;;;;;;5057222;28;19912;-80
2022/05/05 07:57:00;;;;;;;;;;;;;;;;;;5042558;28;19943;-80
2022/05/05 07:59:28;;;;;;;;;;;;;;;;;;5057291;28;19916;-81
2022/05/05 08:01:53;;;;;;;;;;;;;;;;;;5056295;28;19913;-81
2022/05/05 08:04:21;;;;;;;;;;;;;;;;;;5056432;28;19916;-81
2022/05/05 08:06:49;;;;;;;;;;;;;;;;;;5055178;28;19929;-81
2022/05/05 08:09:16;;;;;;;;;;;;;;;;;;5053242;28;19967;-82
2022/05/05 08:11:42;;;;;;;;;;;;;;;;;;5057052;28;20334;-82
2022/05/05 08:14:08;;;;;;;;;;;;;;;;;;5056702;28;19947;-81
2022/05/05 08:16:33;;;;;;;;;;;;;;;;;;5057031;28;19917;-80
2022/05/05 08:19:00;;;;;;;;;;;;;;;;;;5054364;28;19966;-82
2022/05/05 08:21:28;;;;;;;;;;;;;;;;;;5055011;28;20399;-81
2022/05/05 08:29:24;;;;;;;;;;;;;;;;;;5036125;28;19990;-82
2022/05/05 08:31:49;;;;;;;;;;;;;;;;;;5055162;28;20349;-82
2022/05/05 08:34:14;;;;;;;;;;;;;;;;;;5054260;28;19925;-81
2022/05/05 08:36:39;;;;;;;;;;;;;;;;;;5056611;28;19920;-83
2022/05/05 08:39:05;;;;;;;;;;;;;;;;;;5056415;28;19913;-81
2022/05/05 08:41:30;;;;;;;;;;;;;;;;;;5056614;28;19916;-81
2022/05/05 08:43:55;;;;;;;;;;;;;;;;;;5037189;28;19928;-81
2022/05/05 08:46:21;;;;;;;;;;;;;;;;;;5056013;28;19913;-83
2022/05/05 08:48:47;;;;;;;;;;;;;;;;;;5055361;28;19917;-82
2022/05/05 08:51:12;;;;;;;;;;;;;;;;;;5037296;28;19932;-83
2022/05/05 08:53:37;;;;;;;;;;;;;;;;;;5038263;28;20326;-79
2022/05/05 08:56:03;;;;;;;;;;;;;;;;;;5023966;28;20324;-79
2022/05/05 08:58:29;;;;;;;;;;;;;;;;;;5055174;28;20381;-81
2022/05/05 09:00:54;;;;;;;;;;;;;;;;;;5042066;28;20350;-79
2022/05/05 09:03:19;;;;;;;;;;;;;;;;;;5055649;28;19913;-82
2022/05/05 09:05:45;;;;;;;;;;;;;;;;;;5058960;28;19916;-82
2022/05/05 09:08:15;;;;;;;;;;;;;;;;;;5055285;28;19916;-81
2022/05/05 09:10:41;;;;;;;;;;;;;;;;;;5053771;28;19925;-82
2022/05/05 09:13:06;;;;;;;;;;;;;;;;;;5054665;28;19971;-82
2022/05/05 09:15:33;;;;;;;;;;;;;;;;;;5054662;28;19948;-83
2022/05/05 09:18:13;;;;;;;;;;;;;;;;;;5053314;28;20384;-83
2022/05/05 09:20:39;;;;;;;;;;;;;;;;;;5055817;28;19944;-84
2022/05/05 09:23:04;;;;;;;;;;;;;;;;;;5037637;28;19925;-82
2022/05/05 09:25:48;;;;;;;;;;;;;;;;;;5054981;28;19916;-83
2022/05/05 09:28:20;;;;;;;;;;;;;;;;;;5021104;28;19916;-80
2022/05/05 09:30:49;;;;;;;;;;;;;;;;;;5048324;28;19939;-84
2022/05/05 09:33:17;;;;;;;;;;;;;;;;;;5052430;28;20046;-84
2022/05/05 09:35:43;;;;;;;;;;;;;;;;;;5037499;28;19920;-84
2022/05/05 09:38:08;;;;;;;;;;;;;;;;;;5055535;28;19974;-84
2022/05/05 09:40:33;;;;;;;;;;;;;;;;;;5055677;28;19913;-85
2022/05/05 09:43:01;;;;;;;;;;;;;;;;;;5049540;28;19913;-85
2022/05/05 09:45:32;;;;;;;;;;;;;;;;;;5039230;28;19966;-85
2022/05/05 09:47:58;;;;;;;;;;;;;;;;;;5055159;28;19978;-85
2022/05/05 09:50:24;;;;;;;;;;;;;;;;;;5055405;28;19952;-83
2022/05/05 09:58:21;;;;;;;;;;;;;;;;;;5054986;28;20396;-85
2022/05/05 10:00:49;;;;;;;;;;;;;;;;;;5038175;28;19917;-85
2022/05/05 10:06:07;;;;;;;;;;;;;;;;;;5055160;28;19927;-85
2022/05/05 10:08:39;;;;;;;;;;;;;;;;;;5037770;28;19913;-86
2022/05/05 10:11:05;;;;;;;;;;;;;;;;;;5037695;28;20384;-85
2022/05/05 10:13:31;;;;;;;;;;;;;;;;;;5055654;28;19916;-84
2022/05/05 10:15:57;;;;;;;;;;;;;;;;;;5037559;28;20023;-85
2022/05/05 10:18:22;;;;;;;;;;;;;;;;;;5037233;28;19917;-84
2022/05/05 10:20:47;;;;;;;;;;;;;;;;;;5037669;28;20227;-84
2022/05/05 10:23:27;;;;;;;;;;;;;;;;;;5037361;28;20345;-84
2022/05/05 10:25:55;;;;;;;;;;;;;;;;;;5037603;28;20254;-86
2022/05/05 10:28:36;;;;;;;;;;;;;;;;;;5038344;28;19944;-84
2022/05/05 10:31:02;;;;;;;;;;;;;;;;;;5055135;28;19917;-83
2022/05/05 10:33:46;;;;;;;;;;;;;;;;;;5053885;28;19939;-84
2022/05/05 10:36:23;;;;;;;;;;;;;;;;;;5048601;28;19920;-84
2022/05/05 10:38:50;;;;;;;;;;;;;;;;;;5033156;28;19970;-86
2022/05/05 10:41:34;;;;;;;;;;;;;;;;;;5038056;28;19963;-86
2022/05/05 10:44:22;;;;;;;;;;;;;;;;;;5056799;28;19919;-85
2022/05/05 10:46:54;;;;;;;;;;;;;;;;;;5055792;28;19913;-84
2022/05/05 10:49:37;;;;;;;;;;;;;;;;;;5049721;28;19912;-84
2022/05/05 10:52:08;;;;;;;;;;;;;;;;;;5054268;28;19921;-83
2022/05/05 10:54:33;;;;;;;;;;;;;;;;;;5054439;28;20011;-86
2022/05/05 10:57:19;;;;;;;;;;;;;;;;;;5054543;28;20053;-86
2022/05/05 11:00:04;;;;;;;;;;;;;;;;;;5054259;28;19913;-85
2022/05/05 11:02:34;;;;;;;;;;;;;;;;;;5054505;28;20007;-85
2022/05/05 11:05:18;;;;;;;;;;;;;;;;;;5036699;28;20342;-83
2022/05/05 11:07:49;;;;;;;;;;;;;;;;;;5054801;28;19913;-85
2022/05/05 11:10:47;;;;;;;;;;;;;;;;;;5038092;28;19913;-84
2022/05/05 11:13:30;;;;;;;;;;;;;;;;;;4989428;28;20346;-82
2022/05/05 11:21:32;;;;;;;;;;;;;;;;;;5054399;28;19996;-85
2022/05/05 11:23:59;;;;;;;;;;;;;;;;;;5040852;28;19913;-85
2022/05/05 11:26:24;;;;;;;;;;;;;;;;;;5059068;28;19913;-85
2022/05/05 11:28:50;;;;;;;;;;;;;;;;;;5023829;28;20249;-85
2022/05/05 11:31:24;;;;;;;;;;;;;;;;;;5040344;28;19917;-84
2022/05/05 11:33:56;;;;;;;;;;;;;;;;;;5057699;28;19913;-84
2022/05/05 11:36:25;;;;;;;;;;;;;;;;;;5056602;28;19999;-84
2022/05/05 11:38:51;;;;;;;;;;;;;;;;;;5040118;28;19917;-85
2022/05/05 11:41:17;;;;;;;;;;;;;;;;;;5057454;28;20026;-85
2022/05/05 11:46:27;;;;;;;;;;;;;;;;;;5057787;28;20012;-85
2022/05/05 11:48:53;;;;;;;;;;;;;;;;;;5057194;28;20008;-86
2022/05/05 11:51:27;;;;;;;;;;;;;;;;;;5057413;28;20007;-85
2022/05/05 11:53:59;;;;;;;;;;;;;;;;;;5057970;28;20012;-85
2022/05/05 11:56:26;;;;;;;;;;;;;;;;;;5051135;28;19924;-85
2022/05/05 12:01:41;;;;;;;;;;;;;;;;;;5043357;28;19936;-86
2022/05/05 12:04:12;;;;;;;;;;;;;;;;;;5058233;28;19921;-85
2022/05/05 12:06:38;;;;;;;;;;;;;;;;;;5058457;28;20388;-85
2022/05/05 12:09:07;;;;;;;;;;;;;;;;;;5041634;28;20342;-84
2022/05/05 12:11:32;;;;;;;;;;;;;;;;;;5061941;28;20342;-84
2022/05/05 12:14:02;;;;;;;;;;;;;;;;;;5044850;28;19913;-86
2022/05/05 12:16:31;;;;;;;;;;;;;;;;;;5026283;28;19917;-83
2022/05/05 12:18:57;;;;;;;;;;;;;;;;;;5040808;28;19912;-84
2022/05/05 12:21:25;;;;;;;;;;;;;;;;;;5040447;28;19913;-82
2022/05/05 12:24:00;;;;;;;;;;;;;;;;;;5057064;28;19912;-87
2022/05/05 12:26:38;;;;;;;;;;;;;;;;;;5040215;28;19913;-86
2022/05/05 12:29:12;;;;;;;;;;;;;;;;;;5056602;28;20010;-84
2022/05/05 12:31:37;;;;;;;;;;;;;;;;;;5055292;28;20449;-84
2022/05/05 12:34:02;;;;;;;;;;;;;;;;;;5055977;28;20011;-84
2022/05/05 12:36:28;;;;;;;;;;;;;;;;;;5057212;28;19921;-86
2022/05/05 12:39:08;;;;;;;;;;;;;;;;;;5039044;28;19912;-85
2022/05/05 12:41:36;;;;;;;;;;;;;;;;;;5038940;28;19920;-85
2022/05/05 12:44:08;;;;;;;;;;;;;;;;;;5056441;28;19928;-86
2022/05/05 12:46:33;;;;;;;;;;;;;;;;;;5039578;28;19967;-86
2022/05/05 12:48:58;;;;;;;;;;;;;;;;;;5056539;28;20345;-85
2022/05/05 12:51:28;;;;;;;;;;;;;;;;;;5039746;28;19917;-84
2022/05/05 12:59:36;;;;;;;;;;;;;;;;;;5056506;28;20423;-85
2022/05/05 13:02:01;;;;;;;;;;;;;;;;;;5040904;28;20361;-84
2022/05/05 13:04:26;;;;;;;;;;;;;;;;;;5055930;28;19913;-85
2022/05/05 13:06:52;;;;;;;;;;;;;;;;;;5055929;28;19913;-84
2022/05/05 13:09:19;;;;;;;;;;;;;;;;;;5055760;28;19916;-83
2022/05/05 13:11:46;;;;;;;;;;;;;;;;;;5055332;28;19939;-85
2022/05/05 13:14:11;;;;;;;;;;;;;;;;;;5056629;28;19916;-85
2022/05/05 13:16:37;;;;;;;;;;;;;;;;;;5050267;28;20228;-85
2022/05/05 13:19:02;;;;;;;;;;;;;;;;;;5056197;28;19913;-84
2022/05/05 13:21:28;;;;;;;;;;;;;;;;;;5038361;28;20012;-86
2022/05/05 13:23:53;;;;;;;;;;;;;;;;;;5055667;28;19924;-85
2022/05/05 13:26:18;;;;;;;;;;;;;;;;;;5037751;28;19940;-85
2022/05/05 13:28:46;;;;;;;;;;;;;;;;;;5055582;28;19913;-83
2022/05/05 13:31:11;;;;;;;;;;;;;;;;;;5055724;28;20007;-83
2022/05/05 13:33:36;;;;;;;;;;;;;;;;;;5055602;28;20015;-85
2022/05/05 13:36:01;;;;;;;;;;;;;;;;;;5038071;28;20269;-85
2022/05/05 13:38:27;;;;;;;;;;;;;;;;;;5037960;28;19924;-84
2022/05/05 13:40:52;;;;;;;;;;;;;;;;;;5037067;28;19917;-85
2022/05/05 13:43:18;;;;;;;;;;;;;;;;;;5055419;28;19920;-84
2022/05/05 13:45:43;;;;;;;;;;;;;;;;;;5054349;28;19952;-84
2022/05/05 13:48:08;;;;;;;;;;;;;;;;;;5037698;28;19920;-85
2022/05/05 13:50:33;;;;;;;;;;;;;;;;;;5055066;28;20003;-85
2022/05/05 13:52:59;;;;;;;;;;;;;;;;;;5037371;28;19917;-85
2022/05/05 13:55:25;;;;;;;;;;;;;;;;;;5055125;28;19920;-85
2022/05/05 13:57:50;;;;;;;;;;;;;;;;;;5038029;28;19971;-85
2022/05/05 14:00:16;;;;;;;;;;;;;;;;;;5055614;28;19917;-83
2022/05/05 14:02:41;;;;;;;;;;;;;;;;;;5055192;28;19943;-85
2022/05/05 14:05:07;;;;;;;;;;;;;;;;;;5037518;28;20416;-86
2022/05/05 14:13:03;;;;;;;;;;;;;;;;;;5055260;28;20024;-85
2022/05/05 14:15:29;;;;;;;;;;;;;;;;;;5055118;28;19963;-85
2022/05/05 14:17:56;;;;;;;;;;;;;;;;;;5053673;28;20296;-86
2022/05/05 14:20:26;;;;;;;;;;;;;;;;;;5054599;28;19928;-86
2022/05/05 14:22:51;;;;;;;;;;;;;;;;;;5054003;28;19920;-84
2022/05/05 14:25:16;;;;;;;;;;;;;;;;;;5054388;28;19939;-86
2022/05/05 14:27:42;;;;;;;;;;;;;;;;;;5053358;28;20038;-83
2022/05/05 14:30:10;;;;;;;;;;;;;;;;;;5053485;28;19924;-86
2022/05/05 14:32:35;;;;;;;;;;;;;;;;;;5037074;28;19964;-85
2022/05/05 14:35:03;;;;;;;;;;;;;;;;;;5052786;28;20548;-85
2022/05/05 14:37:28;;;;;;;;;;;;;;;;;;5037283;28;19921;-86
2022/05/05 14:39:54;;;;;;;;;;;;;;;;;;5036673;28;20354;-84
2022/05/05 14:42:22;;;;;;;;;;;;;;;;;;5054299;28;19916;-84
2022/05/05 14:44:47;;;;;;;;;;;;;;;;;;5054472;28;19993;-84
2022/05/05 14:47:12;;;;;;;;;;;;;;;;;;5054360;28;20421;-85
2022/05/05 14:49:38;;;;;;;;;;;;;;;;;;5054043;28;20415;-82
2022/05/05 14:52:06;;;;;;;;;;;;;;;;;;5036914;28;20039;-82
2022/05/05 14:54:35;;;;;;;;;;;;;;;;;;5053589;28;20015;-84
2022/05/05 14:57:01;;;;;;;;;;;;;;;;;;5039727;28;19936;-81
2022/05/05 14:59:26;;;;;;;;;;;;;;;;;;5039119;28;19921;-82
2022/05/05 15:01:51;;;;;;;;;;;;;;;;;;5058376;28;19916;-84
2022/05/05 15:04:16;;;;;;;;;;;;;;;;;;5057047;28;19916;-85
2022/05/05 15:06:42;;;;;;;;;;;;;;;;;;5057864;28;19951;-85
2022/05/05 15:09:07;;;;;;;;;;;;;;;;;;5058033;28;19967;-84
2022/05/05 15:11:37;;;;;;;;;;;;;;;;;;5039837;28;19933;-84
2022/05/05 15:14:02;;;;;;;;;;;;;;;;;;5039844;28;19921;-82
2022/05/05 15:16:27;;;;;;;;;;;;;;;;;;5057701;28;19924;-83
2022/05/05 15:18:56;;;;;;;;;;;;;;;;;;5056786;28;19916;-84
2022/05/05 15:21:23;;;;;;;;;;;;;;;;;;5040310;28;19921;-84
2022/05/05 15:23:50;;;;;;;;;;;;;;;;;;5057957;28;20004;-84
2022/05/05 15:26:16;;;;;;;;;;;;;;;;;;5056131;28;19917;-84
2022/05/05 15:28:41;;;;;;;;;;;;;;;;;;5040705;28;19962;-84
2022/05/05 15:31:06;;;;;;;;;;;;;;;;;;5057753;28;19917;-84
2022/05/05 15:33:32;;;;;;;;;;;;;;;;;;5040673;28;19913;-83
2022/05/05 15:35:59;;;;;;;;;;;;;;;;;;5057876;28;19923;-83
2022/05/05 15:38:28;;;;;;;;;;;;;;;;;;5057706;28;20004;-84
2022/05/05 15:40:53;;;;;;;;;;;;;;;;;;5057372;28;19913;-83
2022/05/05 15:43:19;;;;;;;;;;;;;;;;;;5057328;28;19920;-81
2022/05/05 15:45:44;;;;;;;;;;;;;;;;;;5057514;28;19919;-84
2022/05/05 15:48:12;;;;;;;;;;;;;;;;;;5039598;28;19917;-83
2022/05/05 15:50:40;;;;;;;;;;;;;;;;;;5040189;28;20374;-84
2022/05/05 15:53:07;;;;;;;;;;;;;;;;;;5057359;28;19913;-84
2022/05/05 15:55:34;;;;;;;;;;;;;;;;;;5057597;28;19919;-84
2022/05/05 15:58:00;;;;;;;;;;;;;;;;;;5023673;28;19927;-84
2022/05/05 16:00:28;;;;;;;;;;;;;;;;;;5039629;28;20360;-84
2022/05/05 16:02:56;;;;;;;;;;;;;;;;;;5057408;28;19913;-83
2022/05/05 16:05:22;;;;;;;;;;;;;;;;;;5041281;28;19916;-83
2022/05/05 16:07:49;;;;;;;;;;;;;;;;;;5056773;28;19980;-84
2022/05/05 16:10:15;;;;;;;;;;;;;;;;;;5062472;28;20067;-84
2022/05/05 16:12:40;;;;;;;;;;;;;;;;;;5049341;28;19983;-85
2022/05/05 16:15:10;;;;;;;;;;;;;;;;;;5054087;28;19913;-85
2022/05/05 16:17:37;;;;;;;;;;;;;;;;;;5040368;28;19912;-83
2022/05/05 16:20:04;;;;;;;;;;;;;;;;;;5057053;28;19913;-83
2022/05/05 16:22:30;;;;;;;;;;;;;;;;;;5057032;28;19923;-85
2022/05/05 16:30:25;;;;;;;;;;;;;;;;;;5056995;28;19948;-83
2022/05/05 16:32:51;;;;;;;;;;;;;;;;;;5057806;28;19961;-83
2022/05/05 16:35:16;;;;;;;;;;;;;;;;;;5055640;28;19939;-83
2022/05/05 16:37:42;;;;;;;;;;;;;;;;;;5056726;28;19959;-84
2022/05/05 16:40:10;;;;;;;;;;;;;;;;;;5056740;28;20247;-84
2022/05/05 16:42:35;;;;;;;;;;;;;;;;;;5064354;28;19978;-84
2022/05/05 16:45:00;;;;;;;;;;;;;;;;;;5042587;28;19921;-85
2022/05/05 16:47:25;;;;;;;;;;;;;;;;;;5042736;28;19955;-84
2022/05/05 16:49:51;;;;;;;;;;;;;;;;;;5061886;28;19928;-85
2022/05/05 16:52:16;;;;;;;;;;;;;;;;;;5063365;28;20361;-85
2022/05/05 16:54:42;;;;;;;;;;;;;;;;;;5046103;28;20444;-85
2022/05/05 16:57:10;;;;;;;;;;;;;;;;;;5063490;28;19913;-84
2022/05/05 16:59:37;;;;;;;;;;;;;;;;;;5064262;28;19913;-84
2022/05/05 17:02:06;;;;;;;;;;;;;;;;;;5058944;28;19939;-85
2022/05/05 17:04:40;;;;;;;;;;;;;;;;;;5057997;28;19920;-82
2022/05/05 17:07:06;;;;;;;;;;;;;;;;;;5041910;28;19943;-84
2022/05/05 17:09:36;;;;;;;;;;;;;;;;;;5060449;28;19925;-85
2022/05/05 17:12:03;;;;;;;;;;;;;;;;;;5059674;28;19946;-84
2022/05/05 17:14:28;;;;;;;;;;;;;;;;;;5059465;28;19913;-85
2022/05/05 17:16:54;;;;;;;;;;;;;;;;;;5041104;28;19927;-82
2022/05/05 17:19:19;;;;;;;;;;;;;;;;;;5041105;28;20003;-84
2022/05/05 17:21:46;;;;;;;;;;;;;;;;;;5058650;28;19951;-83
2022/05/05 17:24:18;;;;;;;;;;;;;;;;;;5041639;28;19920;-84
2022/05/05 17:27:01;;;;;;;;;;;;;;;;;;5057346;28;19935;-82
2022/05/05 17:29:28;;;;;;;;;;;;;;;;;;5056925;28;19917;-82
2022/05/05 17:31:54;;;;;;;;;;;;;;;;;;5058487;28;19948;-83
2022/05/05 17:34:19;;;;;;;;;;;;;;;;;;5057134;28;19924;-83
2022/05/05 17:36:44;;;;;;;;;;;;;;;;;;5060088;28;19971;-84
2022/05/05 17:39:10;;;;;;;;;;;;;;;;;;5043465;28;19912;-84
2022/05/05 17:41:35;;;;;;;;;;;;;;;;;;5042920;28;19917;-84
2022/05/05 17:44:00;;;;;;;;;;;;;;;;;;5061588;28;20373;-84
2022/05/05 17:52:00;;;;;;;;;;;;;;;;;;5060013;28;19917;-85
2022/05/05 17:54:27;;;;;;;;;;;;;;;;;;5056762;28;19931;-83
2022/05/05 17:56:54;;;;;;;;;;;;;;;;;;5061863;28;19917;-84